Rhodanus — PGBC — position and weather

sailwx.info

Track history (hours):
 
Tides and Currents Weather Stations Pressure Air Temp Water Temp Dewpoint Dewpoint Depression Visibility Wind Speed Wind Dir Waves Ship Positions

Rhodanus

Last reported at 2017-Mar-24 15:31 UTC. Time now 2017-Mar-29 19:05 UTC.
Position N 43°20' E 004°58'.

Length 89 m; draft 4 m.

Type: Ship. MMSI: 245848000.

Date/timePositionNaut miles runAvg speedWind from/ knotsBaromVisibWave heightAir tempDewpointWater temp
2017-Mar-24 15:31N 43°20' E 004°58'3 3.6
2017-Mar-24 14:33N 43°23' E 004°57'1 0.0
2017-Mar-22 12:33N 43°22' E 004°58'16 6.4
2017-Mar-22 10:07N 43°09' E 005°09'98 8.5
2017-Mar-21 22:33N 43°11' E 007°23'62 9.7
2017-Mar-21 16:13N 43°34' E 008°42'710.0
2017-Mar-21 15:33N 43°37' E 008°51'1010.2
2017-Mar-21 14:33N 43°40' E 009°04'10 9.9
2017-Mar-21 13:33N 43°44' E 009°17'10 9.8
2017-Mar-21 12:33N 43°48' E 009°29'10 9.8
2017-Mar-21 11:34N 43°52' E 009°41'9 8.6
2017-Mar-21 10:34N 43°58' E 009°50'8 7.9
2017-Mar-21 09:34N 44°06' E 009°50'0 0.3
2017-Mar-21 08:31N 44°07' E 009°50'0 0.0
2017-Mar-21 07:33N 44°07' E 009°50'1 1.4
2017-Mar-21 06:33N 44°05' E 009°51'5 5.4
2017-Mar-21 05:33N 44°01' E 009°56'9 8.7
2017-Mar-21 04:33N 43°56' E 009°46'8 8.4
2017-Mar-21 03:33N 43°51' E 009°36'8 8.0
2017-Mar-21 02:33N 43°49' E 009°25'8 8.3
2017-Mar-21 01:33N 43°45' E 009°15'8 8.3
2017-Mar-21 00:33N 43°42' E 009°05'8 8.3
2017-Mar-20 23:33N 43°38' E 008°54'8 8.4
2017-Mar-20 22:33N 43°35' E 008°44'9 8.5
2017-Mar-20 21:29N 43°31' E 008°33'7 7.9
2017-Mar-20 20:33N 43°27' E 008°24'109 9.1
2017-Mar-20 08:32N 43°05' E 005°57'3 2.9
2017-Mar-20 07:33N 43°06' E 005°53'0 0.0
2017-Mar-20 06:33N 43°06' E 005°53'0 0.0
2017-Mar-20 05:33N 43°06' E 005°53'0 0.0
2017-Mar-20 04:34N 43°06' E 005°53'0 0.0
2017-Mar-20 03:34N 43°06' E 005°53'0 0.0
2017-Mar-20 02:34N 43°06' E 005°53'0 0.0
2017-Mar-20 01:34N 43°06' E 005°53'0 0.0
2017-Mar-20 00:34N 43°06' E 005°53'0 0.0
2017-Mar-19 23:33N 43°06' E 005°53'0 0.0
2017-Mar-19 22:33N 43°06' E 005°53'0 0.0
2017-Mar-19 21:34N 43°06' E 005°53'0 0.0
2017-Mar-19 20:34N 43°06' E 005°53'0 0.0
2017-Mar-19 19:33N 43°06' E 005°53'0 0.0
2017-Mar-19 18:33N 43°06' E 005°53'0 0.0
2017-Mar-19 17:33N 43°06' E 005°53'0 0.0
2017-Mar-19 16:33N 43°06' E 005°53'0 0.0
2017-Mar-19 15:33N 43°06' E 005°53'0 0.0
2017-Mar-19 14:33N 43°06' E 005°53'0 0.0
2017-Mar-19 13:33N 43°06' E 005°53'0 0.0
2017-Mar-19 12:33N 43°06' E 005°53'0 0.0
2017-Mar-19 11:33N 43°06' E 005°53'0 0.0
2017-Mar-19 10:33N 43°06' E 005°53'0 0.0
2017-Mar-19 09:33N 43°06' E 005°53'0 0.0
2017-Mar-19 08:33N 43°06' E 005°53'0 0.0
2017-Mar-19 07:33N 43°06' E 005°53'0 0.0
2017-Mar-19 06:33N 43°06' E 005°53'0 0.0
2017-Mar-19 05:33N 43°06' E 005°53'0 0.0
2017-Mar-19 04:33N 43°06' E 005°53'0 0.0
2017-Mar-19 03:33N 43°06' E 005°53'0 0.0
2017-Mar-19 02:33N 43°06' E 005°53'0 0.0
2017-Mar-19 01:33N 43°06' E 005°53'0 0.0
2017-Mar-19 00:33N 43°06' E 005°53'0 0.0
2017-Mar-18 23:33N 43°06' E 005°53'0 0.0
2017-Mar-18 22:33N 43°06' E 005°53'0 0.0
2017-Mar-18 21:33N 43°06' E 005°53'0 0.0
2017-Mar-18 20:33N 43°06' E 005°53'0 0.0
2017-Mar-18 19:33N 43°06' E 005°53'0 0.0
2017-Mar-18 18:34N 43°06' E 005°53'0 0.0
2017-Mar-18 17:34N 43°06' E 005°53'0 0.0
2017-Mar-18 16:33N 43°06' E 005°53'0 0.0
2017-Mar-18 15:33N 43°06' E 005°53'0 0.0
2017-Mar-18 14:33N 43°06' E 005°53'0 0.0
2017-Mar-18 13:33N 43°06' E 005°53'0 0.0
2017-Mar-18 12:33N 43°06' E 005°53'0 0.0
2017-Mar-18 11:34N 43°06' E 005°53'0 0.0
2017-Mar-18 10:33N 43°06' E 005°53'0 0.0
2017-Mar-18 09:33N 43°06' E 005°53'0 0.0
2017-Mar-18 08:33N 43°06' E 005°53'0 0.0
2017-Mar-18 07:33N 43°06' E 005°53'0 0.0
2017-Mar-18 06:33N 43°06' E 005°53'0 0.0
2017-Mar-18 05:33N 43°06' E 005°53'0 0.0
2017-Mar-18 04:33N 43°06' E 005°53'0 0.0
2017-Mar-18 03:33N 43°06' E 005°53'0 0.0
2017-Mar-18 02:33N 43°06' E 005°53'0 0.0
2017-Mar-18 01:33N 43°06' E 005°53'0 0.0
2017-Mar-18 00:33N 43°06' E 005°53'0 0.0
2017-Mar-17 23:33N 43°06' E 005°53'0 0.0
2017-Mar-17 22:33N 43°06' E 005°53'0 0.0
2017-Mar-17 21:33N 43°06' E 005°53'0 0.0
2017-Mar-17 20:33N 43°06' E 005°53'0 0.0
2017-Mar-17 19:34N 43°06' E 005°53'0 0.0
2017-Mar-17 18:34N 43°06' E 005°53'0 0.0
2017-Mar-17 17:33N 43°06' E 005°53'0 0.0
2017-Mar-17 16:33N 43°06' E 005°53'0 0.0
2017-Mar-17 15:33N 43°06' E 005°53'0 0.0
2017-Mar-17 14:33N 43°06' E 005°53'0 0.0
2017-Mar-17 13:33N 43°06' E 005°53'0 0.0
2017-Mar-17 12:33N 43°06' E 005°53'0 0.0
2017-Mar-17 11:33N 43°06' E 005°53'0 0.0
2017-Mar-17 10:33N 43°06' E 005°53'0 0.0
2017-Mar-17 09:33N 43°06' E 005°53'0 0.0
2017-Mar-17 08:34N 43°06' E 005°53'0 0.0
2017-Mar-17 07:33N 43°06' E 005°53'0 0.0
2017-Mar-17 06:33N 43°06' E 005°53'0 0.0
2017-Mar-17 05:33N 43°06' E 005°53'0 0.0
2017-Mar-17 04:34N 43°06' E 005°53'0 0.0
2017-Mar-17 03:33N 43°06' E 005°53'0 0.0
2017-Mar-17 02:33N 43°06' E 005°53'0 0.0
2017-Mar-17 01:34N 43°06' E 005°53'0 0.0
2017-Mar-17 00:33N 43°06' E 005°53'0 0.0
2017-Mar-16 23:33N 43°06' E 005°53'0 0.0
2017-Mar-16 22:33N 43°06' E 005°53'0 0.0
2017-Mar-16 21:34N 43°06' E 005°53'0 0.0
2017-Mar-16 20:33N 43°06' E 005°53'0 0.0
2017-Mar-16 19:33N 43°06' E 005°53'10 4.2
2017-Mar-16 17:18N 42°58' E 006°00'5 6.3
2017-Mar-16 16:28N 42°53' E 006°01'6 6.2
2017-Mar-16 15:33N 42°48' E 005°58'60 7.2
2017-Mar-16 07:14N 41°48' E 006°05'6 9.2
2017-Mar-16 06:33N 41°43' E 006°09'10 9.6
2017-Mar-16 05:33N 41°34' E 006°15'7010.0
2017-Mar-15 22:32N 40°32' E 006°58'10 9.9
2017-Mar-15 21:33N 40°23' E 007°04'10 9.9
2017-Mar-15 20:32N 40°15' E 007°11'47 9.4
2017-Mar-15 15:31N 39°33' E 007°39'  
Track history (hours):
 
Tides and Currents Weather Stations Pressure Air Temp Water Temp Dewpoint Dewpoint Depression Visibility Wind Speed Wind Dir Waves Ship Positions

Rhodanus

Last reported at 2017-Mar-24 15:31 UTC. Time now 2017-Mar-29 19:05 UTC.
Position N 43°20' E 004°58'.

Length 89 m; draft 4 m.

Type: Ship. MMSI: 245848000.

Date/timePositionNaut miles runAvg speedWind from/ knotsBaromVisibWave heightAir tempDewpointWater temp
2017-Mar-24 15:31N 43°20' E 004°58'3 3.6
2017-Mar-24 14:33N 43°23' E 004°57'1 0.0
2017-Mar-22 12:33N 43°22' E 004°58'16 6.4
2017-Mar-22 10:07N 43°09' E 005°09'98 8.5
2017-Mar-21 22:33N 43°11' E 007°23'62 9.7
2017-Mar-21 16:13N 43°34' E 008°42'710.0
2017-Mar-21 15:33N 43°37' E 008°51'1010.2
2017-Mar-21 14:33N 43°40' E 009°04'10 9.9
2017-Mar-21 13:33N 43°44' E 009°17'10 9.8
2017-Mar-21 12:33N 43°48' E 009°29'10 9.8
2017-Mar-21 11:34N 43°52' E 009°41'9 8.6
2017-Mar-21 10:34N 43°58' E 009°50'8 7.9
2017-Mar-21 09:34N 44°06' E 009°50'0 0.3
2017-Mar-21 08:31N 44°07' E 009°50'0 0.0
2017-Mar-21 07:33N 44°07' E 009°50'1 1.4
2017-Mar-21 06:33N 44°05' E 009°51'5 5.4
2017-Mar-21 05:33N 44°01' E 009°56'9 8.7
2017-Mar-21 04:33N 43°56' E 009°46'8 8.4
2017-Mar-21 03:33N 43°51' E 009°36'8 8.0
2017-Mar-21 02:33N 43°49' E 009°25'8 8.3
2017-Mar-21 01:33N 43°45' E 009°15'8 8.3
2017-Mar-21 00:33N 43°42' E 009°05'8 8.3
2017-Mar-20 23:33N 43°38' E 008°54'8 8.4
2017-Mar-20 22:33N 43°35' E 008°44'9 8.5
2017-Mar-20 21:29N 43°31' E 008°33'7 7.9
2017-Mar-20 20:33N 43°27' E 008°24'109 9.1
2017-Mar-20 08:32N 43°05' E 005°57'3 2.9
2017-Mar-20 07:33N 43°06' E 005°53'0 0.0
2017-Mar-20 06:33N 43°06' E 005°53'0 0.0
2017-Mar-20 05:33N 43°06' E 005°53'0 0.0
2017-Mar-20 04:34N 43°06' E 005°53'0 0.0
2017-Mar-20 03:34N 43°06' E 005°53'0 0.0
2017-Mar-20 02:34N 43°06' E 005°53'0 0.0
2017-Mar-20 01:34N 43°06' E 005°53'0 0.0
2017-Mar-20 00:34N 43°06' E 005°53'0 0.0
2017-Mar-19 23:33N 43°06' E 005°53'0 0.0
2017-Mar-19 22:33N 43°06' E 005°53'0 0.0
2017-Mar-19 21:34N 43°06' E 005°53'0 0.0
2017-Mar-19 20:34N 43°06' E 005°53'0 0.0
2017-Mar-19 19:33N 43°06' E 005°53'0 0.0
2017-Mar-19 18:33N 43°06' E 005°53'0 0.0
2017-Mar-19 17:33N 43°06' E 005°53'0 0.0
2017-Mar-19 16:33N 43°06' E 005°53'0 0.0
2017-Mar-19 15:33N 43°06' E 005°53'0 0.0
2017-Mar-19 14:33N 43°06' E 005°53'0 0.0
2017-Mar-19 13:33N 43°06' E 005°53'0 0.0
2017-Mar-19 12:33N 43°06' E 005°53'0 0.0
2017-Mar-19 11:33N 43°06' E 005°53'0 0.0
2017-Mar-19 10:33N 43°06' E 005°53'0 0.0
2017-Mar-19 09:33N 43°06' E 005°53'0 0.0
2017-Mar-19 08:33N 43°06' E 005°53'0 0.0
2017-Mar-19 07:33N 43°06' E 005°53'0 0.0
2017-Mar-19 06:33N 43°06' E 005°53'0 0.0
2017-Mar-19 05:33N 43°06' E 005°53'0 0.0
2017-Mar-19 04:33N 43°06' E 005°53'0 0.0
2017-Mar-19 03:33N 43°06' E 005°53'0 0.0
2017-Mar-19 02:33N 43°06' E 005°53'0 0.0
2017-Mar-19 01:33N 43°06' E 005°53'0 0.0
2017-Mar-19 00:33N 43°06' E 005°53'0 0.0
2017-Mar-18 23:33N 43°06' E 005°53'0 0.0
2017-Mar-18 22:33N 43°06' E 005°53'0 0.0
2017-Mar-18 21:33N 43°06' E 005°53'0 0.0
2017-Mar-18 20:33N 43°06' E 005°53'0 0.0
2017-Mar-18 19:33N 43°06' E 005°53'0 0.0
2017-Mar-18 18:34N 43°06' E 005°53'0 0.0
2017-Mar-18 17:34N 43°06' E 005°53'0 0.0
2017-Mar-18 16:33N 43°06' E 005°53'0 0.0
2017-Mar-18 15:33N 43°06' E 005°53'0 0.0
2017-Mar-18 14:33N 43°06' E 005°53'0 0.0
2017-Mar-18 13:33N 43°06' E 005°53'0 0.0
2017-Mar-18 12:33N 43°06' E 005°53'0 0.0
2017-Mar-18 11:34N 43°06' E 005°53'0 0.0
2017-Mar-18 10:33N 43°06' E 005°53'0 0.0
2017-Mar-18 09:33N 43°06' E 005°53'0 0.0
2017-Mar-18 08:33N 43°06' E 005°53'0 0.0
2017-Mar-18 07:33N 43°06' E 005°53'0 0.0
2017-Mar-18 06:33N 43°06' E 005°53'0 0.0
2017-Mar-18 05:33N 43°06' E 005°53'0 0.0
2017-Mar-18 04:33N 43°06' E 005°53'0 0.0
2017-Mar-18 03:33N 43°06' E 005°53'0 0.0
2017-Mar-18 02:33N 43°06' E 005°53'0 0.0
2017-Mar-18 01:33N 43°06' E 005°53'0 0.0
2017-Mar-18 00:33N 43°06' E 005°53'0 0.0
2017-Mar-17 23:33N 43°06' E 005°53'0 0.0
2017-Mar-17 22:33N 43°06' E 005°53'0 0.0
2017-Mar-17 21:33N 43°06' E 005°53'0 0.0
2017-Mar-17 20:33N 43°06' E 005°53'0 0.0
2017-Mar-17 19:34N 43°06' E 005°53'0 0.0
2017-Mar-17 18:34N 43°06' E 005°53'0 0.0
2017-Mar-17 17:33N 43°06' E 005°53'0 0.0
2017-Mar-17 16:33N 43°06' E 005°53'0 0.0
2017-Mar-17 15:33N 43°06' E 005°53'0 0.0
2017-Mar-17 14:33N 43°06' E 005°53'0 0.0
2017-Mar-17 13:33N 43°06' E 005°53'0 0.0
2017-Mar-17 12:33N 43°06' E 005°53'0 0.0
2017-Mar-17 11:33N 43°06' E 005°53'0 0.0
2017-Mar-17 10:33N 43°06' E 005°53'0 0.0
2017-Mar-17 09:33N 43°06' E 005°53'0 0.0
2017-Mar-17 08:34N 43°06' E 005°53'0 0.0
2017-Mar-17 07:33N 43°06' E 005°53'0 0.0
2017-Mar-17 06:33N 43°06' E 005°53'0 0.0
2017-Mar-17 05:33N 43°06' E 005°53'0 0.0
2017-Mar-17 04:34N 43°06' E 005°53'0 0.0
2017-Mar-17 03:33N 43°06' E 005°53'0 0.0
2017-Mar-17 02:33N 43°06' E 005°53'0 0.0
2017-Mar-17 01:34N 43°06' E 005°53'0 0.0
2017-Mar-17 00:33N 43°06' E 005°53'0 0.0
2017-Mar-16 23:33N 43°06' E 005°53'0 0.0
2017-Mar-16 22:33N 43°06' E 005°53'0 0.0
2017-Mar-16 21:34N 43°06' E 005°53'0 0.0
2017-Mar-16 20:33N 43°06' E 005°53'0 0.0
2017-Mar-16 19:33N 43°06' E 005°53'10 4.2
2017-Mar-16 17:18N 42°58' E 006°00'5 6.3
2017-Mar-16 16:28N 42°53' E 006°01'6 6.2
2017-Mar-16 15:33N 42°48' E 005°58'60 7.2
2017-Mar-16 07:14N 41°48' E 006°05'6 9.2
2017-Mar-16 06:33N 41°43' E 006°09'10 9.6
2017-Mar-16 05:33N 41°34' E 006°15'7010.0
2017-Mar-15 22:32N 40°32' E 006°58'10 9.9
2017-Mar-15 21:33N 40°23' E 007°04'10 9.9
2017-Mar-15 20:32N 40°15' E 007°11'47 9.4
2017-Mar-15 15:31N 39°33' E 007°39'  

Dump ship's entire track history